Fri Langesund — ZDKQ8 — position and weather

sailwx.info

Track history (hours):
 
Tides and Currents Weather Stations Pressure Air Temp Water Temp Dewpoint Dewpoint Depression Visibility Wind Speed Wind Dir Waves Ship Positions

Fri Langesund

Last reported at 2015-Mar-16 14:03 UTC. Time now 2015-Apr-18 19:21 UTC.
Position N 57°19' E 017°42'.
Warning: this ship's position is 33 days out of date.

Length 90 m; draft 5.3 m.

Type: Cargo ship. MMSI: 236111779.

Date/timePositionNaut miles runAvg speedWind from/ knotsBaromVisibWave heightAir tempDewpointWater temp
2015-Mar-16 14:03N 57°19' E 017°42'114 9.9
2015-Mar-16 02:33N 55°44' E 015°46'1110.2
2015-Mar-16 01:30N 55°39' E 015°29'9 9.9
2015-Mar-16 00:34N 55°34' E 015°15'1010.0
2015-Mar-15 23:33N 55°29' E 014°59'1010.1
2015-Mar-15 22:33N 55°24' E 014°44'1010.2
2015-Mar-15 21:33N 55°17' E 014°31'1010.5
2015-Mar-15 20:33N 55°09' E 014°19'1010.2
2015-Mar-15 19:33N 55°01' E 014°08'10 9.7
2015-Mar-15 18:34N 54°58' E 013°52'10 9.6
2015-Mar-15 17:33N 54°55' E 013°36'20 9.7
2015-Mar-15 15:32N 54°49' E 013°04'9 9.5
2015-Mar-15 14:34N 54°46' E 012°48'9 9.4
2015-Mar-15 13:34N 54°41' E 012°34'11 9.6
2015-Mar-15 12:28N 54°35' E 012°19'10 9.5
2015-Mar-15 11:25N 54°26' E 012°12'8 9.4
2015-Mar-15 10:33N 54°25' E 011°58'10 9.7
2015-Mar-15 09:33N 54°26' E 011°41'1010.0
2015-Mar-15 08:33N 54°31' E 011°26'9 9.1
2015-Mar-15 07:33N 54°35' E 011°12'8 8.3
2015-Mar-15 06:31N 54°35' E 010°57'1010.0
2015-Mar-15 05:33N 54°34' E 010°41'1010.1
2015-Mar-15 04:33N 54°31' E 010°24'9 9.1
2015-Mar-15 03:34N 54°25' E 010°13'4 3.7
2015-Mar-15 02:33N 54°22' E 010°08'1 1.1
2015-Mar-15 01:33N 54°22' E 010°07'4 3.8
2015-Mar-15 00:33N 54°21' E 010°00'6 6.5
2015-Mar-14 23:33N 54°22' E 009°49'7 7.4
2015-Mar-14 22:33N 54°17' E 009°39'6 5.6
2015-Mar-14 21:33N 54°12' E 009°34'8 8.1
2015-Mar-14 20:31N 54°09' E 009°21'7 6.6
2015-Mar-14 19:28N 54°02' E 009°18'5 5.6
2015-Mar-14 18:33N 53°57' E 009°15'4 4.2
2015-Mar-14 17:33N 53°54' E 009°10'2 1.8
2015-Mar-14 16:34N 53°53' E 009°08'3 2.7
2015-Mar-14 15:33N 53°52' E 009°03'1110.9
2015-Mar-14 14:33N 53°51' E 008°45'1211.0
2015-Mar-14 13:27N 53°58' E 008°28'1910.2
2015-Mar-14 11:33N 53°58' E 007°56'10 9.7
2015-Mar-14 10:33N 53°55' E 007°40'9 8.9
2015-Mar-14 09:33N 53°53' E 007°25'8 8.5
2015-Mar-14 08:33N 53°51' E 007°11'43 8.7
2015-Mar-14 03:32N 53°40' E 005°60'9 9.5
2015-Mar-14 02:33N 53°37' E 005°45'1010.1
2015-Mar-14 01:33N 53°34' E 005°29'1110.6
2015-Mar-14 00:34N 53°31' E 005°12'1111.0
2015-Mar-13 23:34N 53°27' E 004°55'1311.1
2015-Mar-13 22:24N 53°18' E 004°39'1211.8
2015-Mar-13 21:25N 53°08' E 004°29'1012.0
2015-Mar-13 20:32N 52°59' E 004°21'1111.7
2015-Mar-13 19:34N 52°49' E 004°12'1111.1
2015-Mar-13 18:33N 52°40' E 004°00'1110.5
2015-Mar-13 17:31N 52°32' E 003°48'66 9.2
2015-Mar-13 10:23N 51°44' E 002°35'910.0
2015-Mar-13 09:30N 51°37' E 002°26'1010.7
2015-Mar-13 08:33N 51°29' E 002°16'1111.2
2015-Mar-13 07:32N 51°20' E 002°06'1111.1
2015-Mar-13 06:33N 51°11' E 001°56'1212.2
2015-Mar-13 05:33N 51°02' E 001°42'1313.0
2015-Mar-13 04:33N 50°53' E 001°27'7310.1
2015-Mar-12 21:16N 50°27' W 000°20'11 9.7
2015-Mar-12 20:11N 50°32' W 000°35'6 9.6
2015-Mar-12 19:33N 50°35' W 000°43'9 9.5
2015-Mar-12 18:34N 50°41' W 000°54'10 9.9
2015-Mar-12 17:34N 50°46' W 001°08'9 8.8
2015-Mar-12 16:34N 50°51' W 001°20'6 5.5
2015-Mar-12 15:32N 50°54' W 001°26'0 0.0
2015-Mar-12 14:32N 50°54' W 001°26'0 0.0
2015-Mar-12 13:32N 50°54' W 001°26'0 0.0
2015-Mar-12 12:29N 50°54' W 001°26'0 0.0
2015-Mar-12 11:29N 50°54' W 001°26'0 0.0
2015-Mar-12 10:26N 50°54' W 001°26'0 0.0
2015-Mar-12 09:29N 50°54' W 001°26'0 0.0
2015-Mar-12 07:29N 50°54' W 001°26'0 0.0
2015-Mar-12 06:32N 50°54' W 001°26'0 0.0
2015-Mar-12 05:32N 50°54' W 001°26'0 0.0
2015-Mar-12 04:29N 50°54' W 001°26'0 0.0
2015-Mar-12 03:29N 50°54' W 001°26'0 0.0
2015-Mar-12 02:32N 50°54' W 001°26'0 0.0
2015-Mar-12 01:32N 50°54' W 001°26'0 0.0
2015-Mar-12 00:32N 50°54' W 001°26'0 0.0
2015-Mar-11 23:32N 50°54' W 001°26'0 0.0
2015-Mar-11 22:32N 50°54' W 001°26'0 0.0
2015-Mar-11 21:32N 50°54' W 001°26'0 0.0
2015-Mar-11 18:26N 50°54' W 001°26'0 0.0
2015-Mar-11 17:29N 50°54' W 001°26'0 0.0
2015-Mar-11 16:17N 50°54' W 001°26'0 0.0
2015-Mar-11 15:32N 50°54' W 001°26'0 0.0
2015-Mar-11 14:23N 50°54' W 001°26'0 0.0
2015-Mar-11 13:20N 50°54' W 001°26'0 0.0
2015-Mar-11 12:33N 50°54' W 001°26'5 5.1
2015-Mar-11 11:33N 50°51' W 001°20'1010.0
2015-Mar-11 10:34N 50°45' W 001°07'9 8.7
2015-Mar-11 09:34N 50°38' W 000°59'1212.0
2015-Mar-11 08:33N 50°27' W 001°06'1311.2
2015-Mar-11 07:23N 50°17' W 001°18'  
2015-Mar-08 09:26N 48°39' W 002°01'0 0.0
2015-Mar-08 04:23N 48°39' W 002°01'121 4.0
2015-Mar-06 22:29N 50°21' W 000°20'28 8.5
2015-Mar-06 19:12N 50°34' E 000°18'710.8
2015-Mar-06 18:33N 50°37' E 000°28'1111.4
2015-Mar-06 17:33N 50°43' E 000°43'1111.0
2015-Mar-06 16:33N 50°49' E 000°58'1010.2
2015-Mar-06 15:33N 50°55' E 001°11'9 8.8
2015-Mar-06 14:33N 51°01' E 001°21'  
Track history (hours):
 
Tides and Currents Weather Stations Pressure Air Temp Water Temp Dewpoint Dewpoint Depression Visibility Wind Speed Wind Dir Waves Ship Positions

Fri Langesund

Last reported at 2015-Mar-16 14:03 UTC. Time now 2015-Apr-18 19:21 UTC.
Position N 57°19' E 017°42'.
Warning: this ship's position is 33 days out of date.

Length 90 m; draft 5.3 m.

Type: Cargo ship. MMSI: 236111779.

Date/timePositionNaut miles runAvg speedWind from/ knotsBaromVisibWave heightAir tempDewpointWater temp
2015-Mar-16 14:03N 57°19' E 017°42'114 9.9
2015-Mar-16 02:33N 55°44' E 015°46'1110.2
2015-Mar-16 01:30N 55°39' E 015°29'9 9.9
2015-Mar-16 00:34N 55°34' E 015°15'1010.0
2015-Mar-15 23:33N 55°29' E 014°59'1010.1
2015-Mar-15 22:33N 55°24' E 014°44'1010.2
2015-Mar-15 21:33N 55°17' E 014°31'1010.5
2015-Mar-15 20:33N 55°09' E 014°19'1010.2
2015-Mar-15 19:33N 55°01' E 014°08'10 9.7
2015-Mar-15 18:34N 54°58' E 013°52'10 9.6
2015-Mar-15 17:33N 54°55' E 013°36'20 9.7
2015-Mar-15 15:32N 54°49' E 013°04'9 9.5
2015-Mar-15 14:34N 54°46' E 012°48'9 9.4
2015-Mar-15 13:34N 54°41' E 012°34'11 9.6
2015-Mar-15 12:28N 54°35' E 012°19'10 9.5
2015-Mar-15 11:25N 54°26' E 012°12'8 9.4
2015-Mar-15 10:33N 54°25' E 011°58'10 9.7
2015-Mar-15 09:33N 54°26' E 011°41'1010.0
2015-Mar-15 08:33N 54°31' E 011°26'9 9.1
2015-Mar-15 07:33N 54°35' E 011°12'8 8.3
2015-Mar-15 06:31N 54°35' E 010°57'1010.0
2015-Mar-15 05:33N 54°34' E 010°41'1010.1
2015-Mar-15 04:33N 54°31' E 010°24'9 9.1
2015-Mar-15 03:34N 54°25' E 010°13'4 3.7
2015-Mar-15 02:33N 54°22' E 010°08'1 1.1
2015-Mar-15 01:33N 54°22' E 010°07'4 3.8
2015-Mar-15 00:33N 54°21' E 010°00'6 6.5
2015-Mar-14 23:33N 54°22' E 009°49'7 7.4
2015-Mar-14 22:33N 54°17' E 009°39'6 5.6
2015-Mar-14 21:33N 54°12' E 009°34'8 8.1
2015-Mar-14 20:31N 54°09' E 009°21'7 6.6
2015-Mar-14 19:28N 54°02' E 009°18'5 5.6
2015-Mar-14 18:33N 53°57' E 009°15'4 4.2
2015-Mar-14 17:33N 53°54' E 009°10'2 1.8
2015-Mar-14 16:34N 53°53' E 009°08'3 2.7
2015-Mar-14 15:33N 53°52' E 009°03'1110.9
2015-Mar-14 14:33N 53°51' E 008°45'1211.0
2015-Mar-14 13:27N 53°58' E 008°28'1910.2
2015-Mar-14 11:33N 53°58' E 007°56'10 9.7
2015-Mar-14 10:33N 53°55' E 007°40'9 8.9
2015-Mar-14 09:33N 53°53' E 007°25'8 8.5
2015-Mar-14 08:33N 53°51' E 007°11'43 8.7
2015-Mar-14 03:32N 53°40' E 005°60'9 9.5
2015-Mar-14 02:33N 53°37' E 005°45'1010.1
2015-Mar-14 01:33N 53°34' E 005°29'1110.6
2015-Mar-14 00:34N 53°31' E 005°12'1111.0
2015-Mar-13 23:34N 53°27' E 004°55'1311.1
2015-Mar-13 22:24N 53°18' E 004°39'1211.8
2015-Mar-13 21:25N 53°08' E 004°29'1012.0
2015-Mar-13 20:32N 52°59' E 004°21'1111.7
2015-Mar-13 19:34N 52°49' E 004°12'1111.1
2015-Mar-13 18:33N 52°40' E 004°00'1110.5
2015-Mar-13 17:31N 52°32' E 003°48'66 9.2
2015-Mar-13 10:23N 51°44' E 002°35'910.0
2015-Mar-13 09:30N 51°37' E 002°26'1010.7
2015-Mar-13 08:33N 51°29' E 002°16'1111.2
2015-Mar-13 07:32N 51°20' E 002°06'1111.1
2015-Mar-13 06:33N 51°11' E 001°56'1212.2
2015-Mar-13 05:33N 51°02' E 001°42'1313.0
2015-Mar-13 04:33N 50°53' E 001°27'7310.1
2015-Mar-12 21:16N 50°27' W 000°20'11 9.7
2015-Mar-12 20:11N 50°32' W 000°35'6 9.6
2015-Mar-12 19:33N 50°35' W 000°43'9 9.5
2015-Mar-12 18:34N 50°41' W 000°54'10 9.9
2015-Mar-12 17:34N 50°46' W 001°08'9 8.8
2015-Mar-12 16:34N 50°51' W 001°20'6 5.5
2015-Mar-12 15:32N 50°54' W 001°26'0 0.0
2015-Mar-12 14:32N 50°54' W 001°26'0 0.0
2015-Mar-12 13:32N 50°54' W 001°26'0 0.0
2015-Mar-12 12:29N 50°54' W 001°26'0 0.0
2015-Mar-12 11:29N 50°54' W 001°26'0 0.0
2015-Mar-12 10:26N 50°54' W 001°26'0 0.0
2015-Mar-12 09:29N 50°54' W 001°26'0 0.0
2015-Mar-12 07:29N 50°54' W 001°26'0 0.0
2015-Mar-12 06:32N 50°54' W 001°26'0 0.0
2015-Mar-12 05:32N 50°54' W 001°26'0 0.0
2015-Mar-12 04:29N 50°54' W 001°26'0 0.0
2015-Mar-12 03:29N 50°54' W 001°26'0 0.0
2015-Mar-12 02:32N 50°54' W 001°26'0 0.0
2015-Mar-12 01:32N 50°54' W 001°26'0 0.0
2015-Mar-12 00:32N 50°54' W 001°26'0 0.0
2015-Mar-11 23:32N 50°54' W 001°26'0 0.0
2015-Mar-11 22:32N 50°54' W 001°26'0 0.0
2015-Mar-11 21:32N 50°54' W 001°26'0 0.0
2015-Mar-11 18:26N 50°54' W 001°26'0 0.0
2015-Mar-11 17:29N 50°54' W 001°26'0 0.0
2015-Mar-11 16:17N 50°54' W 001°26'0 0.0
2015-Mar-11 15:32N 50°54' W 001°26'0 0.0
2015-Mar-11 14:23N 50°54' W 001°26'0 0.0
2015-Mar-11 13:20N 50°54' W 001°26'0 0.0
2015-Mar-11 12:33N 50°54' W 001°26'5 5.1
2015-Mar-11 11:33N 50°51' W 001°20'1010.0
2015-Mar-11 10:34N 50°45' W 001°07'9 8.7
2015-Mar-11 09:34N 50°38' W 000°59'1212.0
2015-Mar-11 08:33N 50°27' W 001°06'1311.2
2015-Mar-11 07:23N 50°17' W 001°18'  
2015-Mar-08 09:26N 48°39' W 002°01'0 0.0
2015-Mar-08 04:23N 48°39' W 002°01'121 4.0
2015-Mar-06 22:29N 50°21' W 000°20'28 8.5
2015-Mar-06 19:12N 50°34' E 000°18'710.8
2015-Mar-06 18:33N 50°37' E 000°28'1111.4
2015-Mar-06 17:33N 50°43' E 000°43'1111.0
2015-Mar-06 16:33N 50°49' E 000°58'1010.2
2015-Mar-06 15:33N 50°55' E 001°11'9 8.8
2015-Mar-06 14:33N 51°01' E 001°21'  

Dump ship's entire track history